Addison Township, Michigan
Current Conditions -  °F | °C
As of 1:54 PM on Monday 20 Oct 2014 (Local Time) from KD95 Reporting Station
Overcast Overcast  
Wind Chill: 55°   Ceiling: 2000
Heat Index: 55°   Visibility: 10mi
Dew Point: 46°   Wind: 6mph
Humidity: 73%   Direction: 250°WSW
Pressure: 29.78"   Gusts: NA
Location:  42.8434°N, 83.1398°W
Report Text: KD95 201754Z AUTO 25005KT 10SM OVC020 13/08 A2978 RMK AO2 T01250077
Loading
Personal Weather Stations






























Interactive Weather Map
Tropical Storm Tracking
New forecast layout! Learn more

10-Day Weather Forecast

Advertisements
Track Severe Weather on mobile